sensor_id;sensor_type;location;lat;lon;timestamp;P1;durP1;ratioP1;P2;durP2;ratioP2
64932;SDS011;51446;53.850;10.662;2022-09-16T00:00:23;6.77;;;2.00;;
64932;SDS011;51446;53.850;10.662;2022-09-16T00:02:52;8.50;;;2.30;;
64932;SDS011;51446;53.850;10.662;2022-09-16T00:05:18;9.55;;;1.80;;
64932;SDS011;51446;53.850;10.662;2022-09-16T00:07:43;6.07;;;2.20;;
64932;SDS011;51446;53.850;10.662;2022-09-16T00:10:08;5.23;;;1.93;;
64932;SDS011;51446;53.850;10.662;2022-09-16T00:12:34;5.53;;;2.00;;
64932;SDS011;51446;53.850;10.662;2022-09-16T00:15:00;5.93;;;2.13;;
64932;SDS011;51446;53.850;10.662;2022-09-16T00:17:25;6.37;;;1.80;;
64932;SDS011;51446;53.850;10.662;2022-09-16T00:19:51;7.67;;;1.73;;
64932;SDS011;51446;53.850;10.662;2022-09-16T00:22:16;8.70;;;2.20;;
64932;SDS011;51446;53.850;10.662;2022-09-16T00:24:42;5.55;;;2.72;;
64932;SDS011;51446;53.850;10.662;2022-09-16T00:27:07;4.67;;;1.87;;
64932;SDS011;51446;53.850;10.662;2022-09-16T00:29:33;4.97;;;1.80;;
64932;SDS011;51446;53.850;10.662;2022-09-16T00:31:59;5.30;;;2.05;;
64932;SDS011;51446;53.850;10.662;2022-09-16T00:34:24;7.77;;;2.57;;
64932;SDS011;51446;53.850;10.662;2022-09-16T00:36:49;7.40;;;1.90;;
64932;SDS011;51446;53.850;10.662;2022-09-16T00:39:14;5.57;;;1.67;;
64932;SDS011;51446;53.850;10.662;2022-09-16T00:41:40;8.77;;;1.87;;
64932;SDS011;51446;53.850;10.662;2022-09-16T00:44:06;4.67;;;2.10;;
64932;SDS011;51446;53.850;10.662;2022-09-16T00:47:09;6.10;;;2.20;;
64932;SDS011;51446;53.850;10.662;2022-09-16T00:49:34;6.03;;;2.17;;
64932;SDS011;51446;53.850;10.662;2022-09-16T00:52:00;8.37;;;1.83;;
64932;SDS011;51446;53.850;10.662;2022-09-16T00:54:29;9.52;;;2.17;;
64932;SDS011;51446;53.850;10.662;2022-09-16T00:56:56;9.25;;;2.60;;
64932;SDS011;51446;53.850;10.662;2022-09-16T00:59:25;8.60;;;1.95;;
64932;SDS011;51446;53.850;10.662;2022-09-16T01:01:54;8.70;;;2.03;;
64932;SDS011;51446;53.850;10.662;2022-09-16T01:04:23;15.70;;;2.80;;
64932;SDS011;51446;53.850;10.662;2022-09-16T01:06:52;9.52;;;2.10;;
64932;SDS011;51446;53.850;10.662;2022-09-16T01:09:18;6.17;;;1.80;;
64932;SDS011;51446;53.850;10.662;2022-09-16T01:11:46;2.90;;;1.50;;
64932;SDS011;51446;53.850;10.662;2022-09-16T01:14:11;8.90;;;1.80;;
64932;SDS011;51446;53.850;10.662;2022-09-16T01:16:59;6.20;;;2.05;;
64932;SDS011;51446;53.850;10.662;2022-09-16T01:19:42;9.05;;;2.05;;
64932;SDS011;51446;53.850;10.662;2022-09-16T01:22:33;8.10;;;2.07;;
64932;SDS011;51446;53.850;10.662;2022-09-16T01:28:31;11.38;;;2.88;;
64932;SDS011;51446;53.850;10.662;2022-09-16T01:31:15;8.07;;;1.70;;
64932;SDS011;51446;53.850;10.662;2022-09-16T01:34:13;8.75;;;1.67;;
64932;SDS011;51446;53.850;10.662;2022-09-16T01:37:02;7.17;;;1.90;;
64932;SDS011;51446;53.850;10.662;2022-09-16T01:39:47;5.50;;;1.70;;
64932;SDS011;51446;53.850;10.662;2022-09-16T01:42:27;6.22;;;1.80;;
64932;SDS011;51446;53.850;10.662;2022-09-16T01:45:05;5.65;;;1.60;;
64932;SDS011;51446;53.850;10.662;2022-09-16T01:50:23;7.93;;;2.20;;
64932;SDS011;51446;53.850;10.662;2022-09-16T01:55:23;8.23;;;1.90;;
64932;SDS011;51446;53.850;10.662;2022-09-16T01:58:03;6.32;;;1.92;;
64932;SDS011;51446;53.850;10.662;2022-09-16T02:00:38;10.77;;;1.90;;
64932;SDS011;51446;53.850;10.662;2022-09-16T02:03:07;3.23;;;1.57;;
64932;SDS011;51446;53.850;10.662;2022-09-16T02:05:38;6.55;;;1.80;;
64932;SDS011;51446;53.850;10.662;2022-09-16T02:08:20;4.97;;;1.77;;
64932;SDS011;51446;53.850;10.662;2022-09-16T02:11:13;3.42;;;1.77;;
64932;SDS011;51446;53.850;10.662;2022-09-16T02:13:43;4.75;;;1.88;;
64932;SDS011;51446;53.850;10.662;2022-09-16T02:16:55;3.33;;;1.70;;
64932;SDS011;51446;53.850;10.662;2022-09-16T02:19:11;4.50;;;1.67;;
64932;SDS011;51446;53.850;10.662;2022-09-16T02:21:39;4.68;;;1.90;;
64932;SDS011;51446;53.850;10.662;2022-09-16T02:24:07;9.13;;;1.90;;
64932;SDS011;51446;53.850;10.662;2022-09-16T02:26:36;3.58;;;1.55;;
64932;SDS011;51446;53.850;10.662;2022-09-16T02:29:09;6.20;;;1.87;;
64932;SDS011;51446;53.850;10.662;2022-09-16T02:31:42;7.50;;;1.77;;
64932;SDS011;51446;53.850;10.662;2022-09-16T02:34:12;3.67;;;1.90;;
64932;SDS011;51446;53.850;10.662;2022-09-16T02:36:42;7.85;;;2.13;;
64932;SDS011;51446;53.850;10.662;2022-09-16T02:39:19;5.28;;;1.77;;
64932;SDS011;51446;53.850;10.662;2022-09-16T02:41:51;5.63;;;1.93;;
64932;SDS011;51446;53.850;10.662;2022-09-16T02:44:19;4.82;;;1.90;;
64932;SDS011;51446;53.850;10.662;2022-09-16T02:49:59;4.47;;;1.77;;
64932;SDS011;51446;53.850;10.662;2022-09-16T02:57:51;4.75;;;2.15;;
64932;SDS011;51446;53.850;10.662;2022-09-16T03:00:16;6.03;;;1.87;;
64932;SDS011;51446;53.850;10.662;2022-09-16T03:02:42;3.33;;;1.50;;
64932;SDS011;51446;53.850;10.662;2022-09-16T03:05:07;5.70;;;1.80;;
64932;SDS011;51446;53.850;10.662;2022-09-16T03:07:33;6.40;;;1.83;;
64932;SDS011;51446;53.850;10.662;2022-09-16T03:09:59;5.68;;;1.70;;
64932;SDS011;51446;53.850;10.662;2022-09-16T03:21:02;5.13;;;1.70;;
64932;SDS011;51446;53.850;10.662;2022-09-16T03:23:48;5.78;;;1.80;;
64932;SDS011;51446;53.850;10.662;2022-09-16T03:26:36;10.15;;;1.80;;
64932;SDS011;51446;53.850;10.662;2022-09-16T03:32:09;6.25;;;1.80;;
64932;SDS011;51446;53.850;10.662;2022-09-16T03:34:43;8.32;;;1.90;;
64932;SDS011;51446;53.850;10.662;2022-09-16T03:37:13;4.85;;;1.85;;
64932;SDS011;51446;53.850;10.662;2022-09-16T03:39:41;3.83;;;1.80;;
64932;SDS011;51446;53.850;10.662;2022-09-16T03:42:13;10.23;;;2.10;;
64932;SDS011;51446;53.850;10.662;2022-09-16T03:44:39;12.18;;;2.40;;
64932;SDS011;51446;53.850;10.662;2022-09-16T03:47:05;5.07;;;1.70;;
64932;SDS011;51446;53.850;10.662;2022-09-16T03:49:31;6.00;;;2.05;;
64932;SDS011;51446;53.850;10.662;2022-09-16T03:51:56;10.27;;;2.57;;
64932;SDS011;51446;53.850;10.662;2022-09-16T03:54:22;8.23;;;1.85;;
64932;SDS011;51446;53.850;10.662;2022-09-16T03:56:47;5.50;;;2.00;;
64932;SDS011;51446;53.850;10.662;2022-09-16T03:59:13;5.37;;;2.10;;
64932;SDS011;51446;53.850;10.662;2022-09-16T04:01:38;9.27;;;2.53;;
64932;SDS011;51446;53.850;10.662;2022-09-16T04:04:03;9.73;;;2.20;;
64932;SDS011;51446;53.850;10.662;2022-09-16T04:06:29;5.43;;;2.50;;
64932;SDS011;51446;53.850;10.662;2022-09-16T04:08:54;7.13;;;2.20;;
64932;SDS011;51446;53.850;10.662;2022-09-16T04:11:21;5.57;;;2.28;;
64932;SDS011;51446;53.850;10.662;2022-09-16T04:13:46;9.53;;;2.63;;
64932;SDS011;51446;53.850;10.662;2022-09-16T04:16:17;5.50;;;2.17;;
64932;SDS011;51446;53.850;10.662;2022-09-16T04:18:43;3.08;;;2.00;;
64932;SDS011;51446;53.850;10.662;2022-09-16T04:21:08;4.13;;;2.07;;
64932;SDS011;51446;53.850;10.662;2022-09-16T04:23:34;8.27;;;2.53;;
64932;SDS011;51446;53.850;10.662;2022-09-16T04:26:00;9.40;;;2.50;;
64932;SDS011;51446;53.850;10.662;2022-09-16T04:28:26;4.95;;;2.00;;
64932;SDS011;51446;53.850;10.662;2022-09-16T04:30:52;8.45;;;2.33;;
64932;SDS011;51446;53.850;10.662;2022-09-16T04:33:17;9.80;;;2.50;;
64932;SDS011;51446;53.850;10.662;2022-09-16T04:35:43;6.50;;;2.35;;
64932;SDS011;51446;53.850;10.662;2022-09-16T04:38:08;6.83;;;2.13;;
64932;SDS011;51446;53.850;10.662;2022-09-16T04:40:34;7.07;;;2.20;;
64932;SDS011;51446;53.850;10.662;2022-09-16T04:42:59;7.20;;;2.20;;
64932;SDS011;51446;53.850;10.662;2022-09-16T04:45:24;5.23;;;2.50;;
64932;SDS011;51446;53.850;10.662;2022-09-16T04:47:56;5.87;;;2.00;;
64932;SDS011;51446;53.850;10.662;2022-09-16T04:50:21;3.60;;;1.70;;
64932;SDS011;51446;53.850;10.662;2022-09-16T04:52:47;8.60;;;2.00;;
64932;SDS011;51446;53.850;10.662;2022-09-16T04:55:13;8.73;;;2.08;;
64932;SDS011;51446;53.850;10.662;2022-09-16T04:57:38;9.60;;;1.83;;
64932;SDS011;51446;53.850;10.662;2022-09-16T05:00:03;9.23;;;2.10;;
64932;SDS011;51446;53.850;10.662;2022-09-16T05:02:29;5.57;;;1.90;;
64932;SDS011;51446;53.850;10.662;2022-09-16T05:04:54;8.93;;;2.15;;
64932;SDS011;51446;53.850;10.662;2022-09-16T05:07:20;6.17;;;1.90;;
64932;SDS011;51446;53.850;10.662;2022-09-16T05:09:45;7.87;;;2.30;;
64932;SDS011;51446;53.850;10.662;2022-09-16T05:12:10;9.10;;;2.23;;
64932;SDS011;51446;53.850;10.662;2022-09-16T05:14:36;7.03;;;1.70;;
64932;SDS011;51446;53.850;10.662;2022-09-16T05:17:02;7.40;;;2.05;;
64932;SDS011;51446;53.850;10.662;2022-09-16T05:19:28;6.28;;;2.10;;
64932;SDS011;51446;53.850;10.662;2022-09-16T05:21:53;6.78;;;2.13;;
64932;SDS011;51446;53.850;10.662;2022-09-16T05:24:18;5.23;;;2.30;;
64932;SDS011;51446;53.850;10.662;2022-09-16T05:26:43;9.57;;;2.10;;
64932;SDS011;51446;53.850;10.662;2022-09-16T05:29:11;9.20;;;2.43;;
64932;SDS011;51446;53.850;10.662;2022-09-16T05:31:38;6.80;;;2.03;;
64932;SDS011;51446;53.850;10.662;2022-09-16T05:34:06;8.85;;;2.40;;
64932;SDS011;51446;53.850;10.662;2022-09-16T05:36:38;6.90;;;2.20;;
64932;SDS011;51446;53.850;10.662;2022-09-16T05:39:07;5.55;;;2.00;;
64932;SDS011;51446;53.850;10.662;2022-09-16T05:41:32;8.20;;;2.20;;
64932;SDS011;51446;53.850;10.662;2022-09-16T05:43:58;3.93;;;1.80;;
64932;SDS011;51446;53.850;10.662;2022-09-16T05:46:24;6.28;;;2.00;;
64932;SDS011;51446;53.850;10.662;2022-09-16T05:48:50;3.65;;;1.83;;
64932;SDS011;51446;53.850;10.662;2022-09-16T05:51:16;4.50;;;2.00;;
64932;SDS011;51446;53.850;10.662;2022-09-16T05:53:44;4.85;;;1.90;;
64932;SDS011;51446;53.850;10.662;2022-09-16T05:56:12;5.88;;;1.75;;
64932;SDS011;51446;53.850;10.662;2022-09-16T05:58:39;4.80;;;1.95;;
64932;SDS011;51446;53.850;10.662;2022-09-16T06:01:09;8.27;;;2.03;;
64932;SDS011;51446;53.850;10.662;2022-09-16T06:03:38;5.45;;;1.80;;
64932;SDS011;51446;53.850;10.662;2022-09-16T06:06:05;5.05;;;2.15;;
64932;SDS011;51446;53.850;10.662;2022-09-16T06:08:35;3.67;;;1.63;;
64932;SDS011;51446;53.850;10.662;2022-09-16T06:11:02;7.67;;;2.23;;
64932;SDS011;51446;53.850;10.662;2022-09-16T06:13:29;5.30;;;1.90;;
64932;SDS011;51446;53.850;10.662;2022-09-16T06:15:55;3.55;;;1.58;;
64932;SDS011;51446;53.850;10.662;2022-09-16T06:18:20;4.27;;;1.77;;
64932;SDS011;51446;53.850;10.662;2022-09-16T06:20:47;6.65;;;1.90;;
64932;SDS011;51446;53.850;10.662;2022-09-16T06:23:13;5.85;;;1.60;;
64932;SDS011;51446;53.850;10.662;2022-09-16T06:25:39;4.23;;;1.60;;
64932;SDS011;51446;53.850;10.662;2022-09-16T06:28:04;3.80;;;1.33;;
64932;SDS011;51446;53.850;10.662;2022-09-16T06:30:30;3.23;;;1.33;;
64932;SDS011;51446;53.850;10.662;2022-09-16T06:32:55;8.27;;;1.47;;
64932;SDS011;51446;53.850;10.662;2022-09-16T06:35:21;7.70;;;1.33;;
64932;SDS011;51446;53.850;10.662;2022-09-16T06:37:46;3.80;;;1.10;;
64932;SDS011;51446;53.850;10.662;2022-09-16T06:40:11;7.97;;;1.20;;
64932;SDS011;51446;53.850;10.662;2022-09-16T06:42:37;3.57;;;1.03;;
64932;SDS011;51446;53.850;10.662;2022-09-16T06:45:02;3.50;;;1.07;;
64932;SDS011;51446;53.850;10.662;2022-09-16T06:47:29;3.75;;;1.35;;
64932;SDS011;51446;53.850;10.662;2022-09-16T06:49:57;4.00;;;1.10;;
64932;SDS011;51446;53.850;10.662;2022-09-16T06:52:22;4.68;;;1.00;;
64932;SDS011;51446;53.850;10.662;2022-09-16T06:54:48;8.33;;;1.70;;
64932;SDS011;51446;53.850;10.662;2022-09-16T06:57:14;5.50;;;1.20;;
64932;SDS011;51446;53.850;10.662;2022-09-16T06:59:40;2.83;;;0.97;;
64932;SDS011;51446;53.850;10.662;2022-09-16T07:02:05;5.10;;;1.10;;
64932;SDS011;51446;53.850;10.662;2022-09-16T07:04:30;3.77;;;1.00;;
64932;SDS011;51446;53.850;10.662;2022-09-16T07:06:56;3.27;;;1.00;;
64932;SDS011;51446;53.850;10.662;2022-09-16T07:09:22;8.15;;;1.10;;
64932;SDS011;51446;53.850;10.662;2022-09-16T07:11:47;7.67;;;1.10;;
64932;SDS011;51446;53.850;10.662;2022-09-16T07:14:13;3.97;;;1.07;;
64932;SDS011;51446;53.850;10.662;2022-09-16T07:16:38;4.40;;;0.90;;
64932;SDS011;51446;53.850;10.662;2022-09-16T07:19:03;7.37;;;1.07;;
64932;SDS011;51446;53.850;10.662;2022-09-16T07:21:29;5.83;;;0.80;;
64932;SDS011;51446;53.850;10.662;2022-09-16T07:23:55;7.10;;;1.55;;
64932;SDS011;51446;53.850;10.662;2022-09-16T07:26:23;4.30;;;1.10;;
64932;SDS011;51446;53.850;10.662;2022-09-16T07:28:51;6.10;;;1.08;;
64932;SDS011;51446;53.850;10.662;2022-09-16T07:31:18;7.53;;;1.40;;
64932;SDS011;51446;53.850;10.662;2022-09-16T07:33:48;5.18;;;1.02;;
64932;SDS011;51446;53.850;10.662;2022-09-16T07:36:15;3.70;;;1.00;;
64932;SDS011;51446;53.850;10.662;2022-09-16T07:38:45;3.13;;;0.97;;
64932;SDS011;51446;53.850;10.662;2022-09-16T07:41:12;3.75;;;1.00;;
64932;SDS011;51446;53.850;10.662;2022-09-16T07:43:48;7.85;;;1.55;;
64932;SDS011;51446;53.850;10.662;2022-09-16T07:46:15;5.53;;;1.25;;
64932;SDS011;51446;53.850;10.662;2022-09-16T07:48:42;4.50;;;1.17;;
64932;SDS011;51446;53.850;10.662;2022-09-16T07:51:09;7.55;;;0.93;;
64932;SDS011;51446;53.850;10.662;2022-09-16T07:53:39;6.85;;;1.10;;
64932;SDS011;51446;53.850;10.662;2022-09-16T07:56:09;5.03;;;1.00;;
64932;SDS011;51446;53.850;10.662;2022-09-16T07:58:37;4.78;;;0.98;;
64932;SDS011;51446;53.850;10.662;2022-09-16T08:01:03;3.63;;;0.80;;
64932;SDS011;51446;53.850;10.662;2022-09-16T08:03:29;4.80;;;1.20;;
64932;SDS011;51446;53.850;10.662;2022-09-16T08:06:02;9.15;;;0.90;;
64932;SDS011;51446;53.850;10.662;2022-09-16T08:08:30;3.50;;;0.90;;
64932;SDS011;51446;53.850;10.662;2022-09-16T08:10:56;4.03;;;1.20;;
64932;SDS011;51446;53.850;10.662;2022-09-16T08:13:22;6.33;;;1.20;;
64932;SDS011;51446;53.850;10.662;2022-09-16T08:15:48;6.20;;;1.15;;
64932;SDS011;51446;53.850;10.662;2022-09-16T08:18:13;4.53;;;1.10;;
64932;SDS011;51446;53.850;10.662;2022-09-16T08:20:39;6.23;;;1.10;;
64932;SDS011;51446;53.850;10.662;2022-09-16T08:23:04;4.23;;;1.87;;
64932;SDS011;51446;53.850;10.662;2022-09-16T08:25:29;4.60;;;0.98;;
64932;SDS011;51446;53.850;10.662;2022-09-16T08:27:55;4.73;;;0.90;;
64932;SDS011;51446;53.850;10.662;2022-09-16T08:30:20;5.93;;;1.10;;
64932;SDS011;51446;53.850;10.662;2022-09-16T08:32:45;5.23;;;1.00;;
64932;SDS011;51446;53.850;10.662;2022-09-16T08:35:11;5.80;;;1.10;;
64932;SDS011;51446;53.850;10.662;2022-09-16T08:37:38;5.82;;;1.05;;
64932;SDS011;51446;53.850;10.662;2022-09-16T08:40:03;7.70;;;1.23;;
64932;SDS011;51446;53.850;10.662;2022-09-16T08:42:32;6.55;;;1.10;;
64932;SDS011;51446;53.850;10.662;2022-09-16T08:45:23;9.57;;;1.50;;
64932;SDS011;51446;53.850;10.662;2022-09-16T08:48:26;7.43;;;1.45;;
64932;SDS011;51446;53.850;10.662;2022-09-16T08:50:59;8.48;;;1.80;;
64932;SDS011;51446;53.850;10.662;2022-09-16T08:53:40;5.93;;;1.60;;
64932;SDS011;51446;53.850;10.662;2022-09-16T08:56:10;6.38;;;1.30;;
64932;SDS011;51446;53.850;10.662;2022-09-16T08:58:45;8.63;;;1.42;;
64932;SDS011;51446;53.850;10.662;2022-09-16T09:01:20;6.68;;;1.40;;
64932;SDS011;51446;53.850;10.662;2022-09-16T09:03:51;6.53;;;1.17;;
64932;SDS011;51446;53.850;10.662;2022-09-16T09:06:21;4.93;;;1.20;;
64932;SDS011;51446;53.850;10.662;2022-09-16T09:08:58;6.97;;;1.30;;
64932;SDS011;51446;53.850;10.662;2022-09-16T09:14:19;6.40;;;1.17;;
64932;SDS011;51446;53.850;10.662;2022-09-16T09:19:33;4.25;;;1.13;;
64932;SDS011;51446;53.850;10.662;2022-09-16T09:22:22;7.90;;;0.90;;
64932;SDS011;51446;53.850;10.662;2022-09-16T09:30:38;9.43;;;1.20;;
64932;SDS011;51446;53.850;10.662;2022-09-16T09:38:48;6.75;;;1.05;;
64932;SDS011;51446;53.850;10.662;2022-09-16T09:41:30;4.65;;;1.23;;
64932;SDS011;51446;53.850;10.662;2022-09-16T09:47:02;5.88;;;1.25;;
64932;SDS011;51446;53.850;10.662;2022-09-16T09:49:36;7.20;;;1.25;;
64932;SDS011;51446;53.850;10.662;2022-09-16T09:52:09;6.97;;;1.48;;
64932;SDS011;51446;53.850;10.662;2022-09-16T09:54:37;4.30;;;1.00;;
64932;SDS011;51446;53.850;10.662;2022-09-16T09:57:26;6.97;;;1.60;;
64932;SDS011;51446;53.850;10.662;2022-09-16T10:00:36;8.35;;;1.10;;
64932;SDS011;51446;53.850;10.662;2022-09-16T10:02:45;5.88;;;1.15;;
64932;SDS011;51446;53.850;10.662;2022-09-16T10:05:24;5.90;;;1.10;;
64932;SDS011;51446;53.850;10.662;2022-09-16T10:07:51;2.42;;;1.10;;
64932;SDS011;51446;53.850;10.662;2022-09-16T10:10:20;5.82;;;1.10;;
64932;SDS011;51446;53.850;10.662;2022-09-16T10:12:47;6.70;;;1.50;;
64932;SDS011;51446;53.850;10.662;2022-09-16T10:15:26;4.33;;;1.00;;
64932;SDS011;51446;53.850;10.662;2022-09-16T10:17:53;9.02;;;1.25;;
64932;SDS011;51446;53.850;10.662;2022-09-16T10:23:01;3.20;;;1.23;;
64932;SDS011;51446;53.850;10.662;2022-09-16T10:25:29;4.97;;;1.40;;
64932;SDS011;51446;53.850;10.662;2022-09-16T10:27:57;3.80;;;1.17;;
64932;SDS011;51446;53.850;10.662;2022-09-16T10:30:41;4.57;;;1.45;;
64932;SDS011;51446;53.850;10.662;2022-09-16T10:33:12;3.92;;;1.10;;
64932;SDS011;51446;53.850;10.662;2022-09-16T10:35:51;5.67;;;1.87;;
64932;SDS011;51446;53.850;10.662;2022-09-16T10:38:23;9.15;;;1.55;;
64932;SDS011;51446;53.850;10.662;2022-09-16T10:40:59;8.68;;;1.38;;
64932;SDS011;51446;53.850;10.662;2022-09-16T10:43:31;5.55;;;1.30;;
64932;SDS011;51446;53.850;10.662;2022-09-16T10:45:56;12.53;;;1.40;;
64932;SDS011;51446;53.850;10.662;2022-09-16T10:48:23;7.30;;;1.30;;
64932;SDS011;51446;53.850;10.662;2022-09-16T10:50:52;5.20;;;1.25;;
64932;SDS011;51446;53.850;10.662;2022-09-16T10:53:30;5.20;;;1.45;;
64932;SDS011;51446;53.850;10.662;2022-09-16T10:56:20;8.18;;;1.52;;
64932;SDS011;51446;53.850;10.662;2022-09-16T10:58:46;6.45;;;1.13;;
64932;SDS011;51446;53.850;10.662;2022-09-16T11:03:51;5.53;;;1.23;;
64932;SDS011;51446;53.850;10.662;2022-09-16T11:17:45;6.70;;;1.42;;
64932;SDS011;51446;53.850;10.662;2022-09-16T11:20:38;6.43;;;1.67;;
64932;SDS011;51446;53.850;10.662;2022-09-16T11:36:49;9.40;;;1.20;;
64932;SDS011;51446;53.850;10.662;2022-09-16T11:42:10;8.30;;;1.55;;
64932;SDS011;51446;53.850;10.662;2022-09-16T11:50:21;5.60;;;1.27;;
64932;SDS011;51446;53.850;10.662;2022-09-16T11:56:03;6.18;;;1.00;;
64932;SDS011;51446;53.850;10.662;2022-09-16T11:58:46;5.47;;;1.10;;
64932;SDS011;51446;53.850;10.662;2022-09-16T12:01:31;4.78;;;1.10;;
64932;SDS011;51446;53.850;10.662;2022-09-16T12:04:45;5.57;;;1.07;;
64932;SDS011;51446;53.850;10.662;2022-09-16T12:06:52;6.43;;;1.15;;
64932;SDS011;51446;53.850;10.662;2022-09-16T12:09:39;4.65;;;1.17;;
64932;SDS011;51446;53.850;10.662;2022-09-16T12:12:14;4.70;;;1.20;;
64932;SDS011;51446;53.850;10.662;2022-09-16T12:14:44;6.68;;;1.30;;
64932;SDS011;51446;53.850;10.662;2022-09-16T12:17:15;7.03;;;1.30;;
64932;SDS011;51446;53.850;10.662;2022-09-16T12:20:09;9.10;;;1.60;;
64932;SDS011;51446;53.850;10.662;2022-09-16T12:22:49;7.93;;;2.13;;
64932;SDS011;51446;53.850;10.662;2022-09-16T12:25:24;9.23;;;1.55;;
64932;SDS011;51446;53.850;10.662;2022-09-16T12:27:57;7.30;;;1.48;;
64932;SDS011;51446;53.850;10.662;2022-09-16T12:30:29;7.70;;;1.30;;
64932;SDS011;51446;53.850;10.662;2022-09-16T12:33:18;5.35;;;1.20;;
64932;SDS011;51446;53.850;10.662;2022-09-16T12:35:51;4.35;;;1.13;;
64932;SDS011;51446;53.850;10.662;2022-09-16T12:38:23;12.40;;;1.23;;
64932;SDS011;51446;53.850;10.662;2022-09-16T12:43:39;5.03;;;1.75;;
64932;SDS011;51446;53.850;10.662;2022-09-16T12:58:01;4.65;;;1.10;;
64932;SDS011;51446;53.850;10.662;2022-09-16T13:03:20;3.28;;;0.90;;
64932;SDS011;51446;53.850;10.662;2022-09-16T13:05:50;1.95;;;1.13;;
64932;SDS011;51446;53.850;10.662;2022-09-16T13:08:21;4.60;;;1.27;;
64932;SDS011;51446;53.850;10.662;2022-09-16T13:10:56;4.90;;;1.05;;
64932;SDS011;51446;53.850;10.662;2022-09-16T13:13:35;2.65;;;0.98;;
64932;SDS011;51446;53.850;10.662;2022-09-16T13:16:04;3.97;;;1.10;;
64932;SDS011;51446;53.850;10.662;2022-09-16T13:18:44;3.05;;;1.15;;
64932;SDS011;51446;53.850;10.662;2022-09-16T13:23:52;4.68;;;1.25;;
64932;SDS011;51446;53.850;10.662;2022-09-16T13:26:38;4.28;;;1.17;;
64932;SDS011;51446;53.850;10.662;2022-09-16T13:29:22;6.65;;;1.70;;
64932;SDS011;51446;53.850;10.662;2022-09-16T13:31:53;3.17;;;1.08;;
64932;SDS011;51446;53.850;10.662;2022-09-16T13:34:18;4.80;;;1.40;;
64932;SDS011;51446;53.850;10.662;2022-09-16T13:36:44;4.40;;;1.00;;
64932;SDS011;51446;53.850;10.662;2022-09-16T13:39:11;3.83;;;1.30;;
64932;SDS011;51446;53.850;10.662;2022-09-16T13:41:42;6.33;;;1.20;;
64932;SDS011;51446;53.850;10.662;2022-09-16T13:49:55;6.20;;;1.10;;
64932;SDS011;51446;53.850;10.662;2022-09-16T13:52:31;5.85;;;1.23;;
64932;SDS011;51446;53.850;10.662;2022-09-16T13:54:59;4.30;;;1.10;;
64932;SDS011;51446;53.850;10.662;2022-09-16T14:00:23;6.40;;;1.42;;
64932;SDS011;51446;53.850;10.662;2022-09-16T14:05:54;4.60;;;1.33;;
64932;SDS011;51446;53.850;10.662;2022-09-16T14:11:12;3.45;;;1.10;;
64932;SDS011;51446;53.850;10.662;2022-09-16T14:13:45;4.10;;;1.42;;
64932;SDS011;51446;53.850;10.662;2022-09-16T14:16:34;5.88;;;1.30;;
64932;SDS011;51446;53.850;10.662;2022-09-16T14:19:05;2.20;;;0.93;;
64932;SDS011;51446;53.850;10.662;2022-09-16T14:21:38;3.40;;;0.90;;
64932;SDS011;51446;53.850;10.662;2022-09-16T14:24:17;7.90;;;1.00;;
64932;SDS011;51446;53.850;10.662;2022-09-16T14:26:53;3.57;;;1.00;;
64932;SDS011;51446;53.850;10.662;2022-09-16T14:29:20;4.05;;;0.85;;
64932;SDS011;51446;53.850;10.662;2022-09-16T14:31:47;2.78;;;1.00;;
64932;SDS011;51446;53.850;10.662;2022-09-16T14:34:20;5.20;;;1.02;;
64932;SDS011;51446;53.850;10.662;2022-09-16T14:36:47;4.50;;;1.30;;
64932;SDS011;51446;53.850;10.662;2022-09-16T14:39:13;2.80;;;0.80;;
64932;SDS011;51446;53.850;10.662;2022-09-16T14:42:16;4.90;;;1.00;;
64932;SDS011;51446;53.850;10.662;2022-09-16T14:44:49;1.60;;;0.95;;
64932;SDS011;51446;53.850;10.662;2022-09-16T14:49:46;3.23;;;1.00;;
64932;SDS011;51446;53.850;10.662;2022-09-16T14:52:23;2.50;;;0.90;;
64932;SDS011;51446;53.850;10.662;2022-09-16T14:54:57;2.33;;;1.08;;
64932;SDS011;51446;53.850;10.662;2022-09-16T14:57:23;5.55;;;1.10;;
64932;SDS011;51446;53.850;10.662;2022-09-16T14:59:57;1.80;;;0.90;;
64932;SDS011;51446;53.850;10.662;2022-09-16T15:07:38;1.98;;;1.10;;
64932;SDS011;51446;53.850;10.662;2022-09-16T15:10:06;2.83;;;0.90;;
64932;SDS011;51446;53.850;10.662;2022-09-16T15:12:50;3.45;;;1.10;;
64932;SDS011;51446;53.850;10.662;2022-09-16T15:15:22;2.07;;;1.33;;
64932;SDS011;51446;53.850;10.662;2022-09-16T15:17:55;1.55;;;1.02;;
64932;SDS011;51446;53.850;10.662;2022-09-16T15:20:24;3.65;;;1.10;;
64932;SDS011;51446;53.850;10.662;2022-09-16T15:22:52;1.67;;;1.42;;
64932;SDS011;51446;53.850;10.662;2022-09-16T15:25:19;3.55;;;1.20;;
64932;SDS011;51446;53.850;10.662;2022-09-16T15:27:47;3.00;;;1.30;;
64932;SDS011;51446;53.850;10.662;2022-09-16T15:30:20;3.50;;;1.43;;
64932;SDS011;51446;53.850;10.662;2022-09-16T15:32:47;4.20;;;2.05;;
64932;SDS011;51446;53.850;10.662;2022-09-16T15:35:22;4.57;;;1.30;;
64932;SDS011;51446;53.850;10.662;2022-09-16T15:37:53;3.78;;;1.40;;
64932;SDS011;51446;53.850;10.662;2022-09-16T15:42:47;4.25;;;1.40;;
64932;SDS011;51446;53.850;10.662;2022-09-16T15:45:24;2.28;;;1.50;;
64932;SDS011;51446;53.850;10.662;2022-09-16T15:53:47;4.03;;;1.30;;
64932;SDS011;51446;53.850;10.662;2022-09-16T15:56:20;2.40;;;1.30;;
64932;SDS011;51446;53.850;10.662;2022-09-16T15:58:56;4.30;;;1.50;;
64932;SDS011;51446;53.850;10.662;2022-09-16T16:01:35;4.87;;;1.60;;
64932;SDS011;51446;53.850;10.662;2022-09-16T16:04:05;7.30;;;1.60;;
64932;SDS011;51446;53.850;10.662;2022-09-16T16:06:45;2.45;;;1.73;;
64932;SDS011;51446;53.850;10.662;2022-09-16T16:09:38;3.72;;;1.40;;
64932;SDS011;51446;53.850;10.662;2022-09-16T16:14:34;3.53;;;1.50;;
64932;SDS011;51446;53.850;10.662;2022-09-16T16:17:07;6.07;;;2.20;;
64932;SDS011;51446;53.850;10.662;2022-09-16T16:19:38;3.65;;;1.48;;
64932;SDS011;51446;53.850;10.662;2022-09-16T16:22:05;3.65;;;1.80;;
64932;SDS011;51446;53.850;10.662;2022-09-16T16:24:31;2.70;;;1.73;;
64932;SDS011;51446;53.850;10.662;2022-09-16T16:26:57;4.97;;;1.97;;
64932;SDS011;51446;53.850;10.662;2022-09-16T16:29:22;2.65;;;1.73;;
64932;SDS011;51446;53.850;10.662;2022-09-16T16:31:58;3.77;;;1.70;;
64932;SDS011;51446;53.850;10.662;2022-09-16T16:34:23;2.10;;;1.40;;
64932;SDS011;51446;53.850;10.662;2022-09-16T16:36:48;3.22;;;1.58;;
64932;SDS011;51446;53.850;10.662;2022-09-16T16:39:13;3.37;;;1.77;;
64932;SDS011;51446;53.850;10.662;2022-09-16T16:41:39;4.93;;;1.60;;
64932;SDS011;51446;53.850;10.662;2022-09-16T16:44:04;6.93;;;1.83;;
64932;SDS011;51446;53.850;10.662;2022-09-16T16:46:29;6.30;;;1.60;;
64932;SDS011;51446;53.850;10.662;2022-09-16T16:48:55;5.37;;;1.90;;
64932;SDS011;51446;53.850;10.662;2022-09-16T16:51:20;3.33;;;1.97;;
64932;SDS011;51446;53.850;10.662;2022-09-16T16:53:46;5.43;;;1.70;;
64932;SDS011;51446;53.850;10.662;2022-09-16T16:56:13;8.00;;;1.75;;
64932;SDS011;51446;53.850;10.662;2022-09-16T16:58:38;6.03;;;1.60;;
64932;SDS011;51446;53.850;10.662;2022-09-16T17:03:37;5.55;;;2.08;;
64932;SDS011;51446;53.850;10.662;2022-09-16T17:06:02;5.67;;;1.83;;
64932;SDS011;51446;53.850;10.662;2022-09-16T17:08:28;5.33;;;1.90;;
64932;SDS011;51446;53.850;10.662;2022-09-16T17:11:03;7.15;;;2.30;;
64932;SDS011;51446;53.850;10.662;2022-09-16T17:13:34;4.87;;;2.00;;
64932;SDS011;51446;53.850;10.662;2022-09-16T17:16:00;11.05;;;2.63;;
64932;SDS011;51446;53.850;10.662;2022-09-16T17:18:25;8.87;;;2.70;;